createdAt,value
2017-03-06T00:00:11.251Z,19.47
2017-03-06T00:01:21.203Z,19.59
2017-03-06T00:02:31.949Z,19.53
2017-03-06T00:03:42.592Z,19.45
2017-03-06T00:04:52.944Z,19.55
2017-03-06T00:06:03.689Z,19.44
2017-03-06T00:07:14.044Z,19.42
2017-03-06T00:08:24.393Z,19.48
2017-03-06T00:09:35.023Z,19.53
2017-03-06T00:10:45.775Z,19.45
2017-03-06T00:11:55.321Z,19.49
2017-03-06T00:13:05.296Z,19.57
2017-03-06T00:14:15.639Z,19.41
2017-03-06T00:15:25.837Z,19.44
2017-03-06T00:16:36.189Z,19.49
2017-03-06T00:17:46.837Z,19.48
2017-03-06T00:18:57.578Z,19.49
2017-03-06T00:20:07.910Z,19.52
2017-03-06T00:21:18.130Z,19.48
2017-03-06T00:22:28.087Z,19.48
2017-03-06T00:23:38.038Z,19.39
2017-03-06T00:24:48.406Z,19.44
2017-03-06T00:25:57.993Z,19.39
2017-03-06T00:27:08.243Z,19.48
2017-03-06T00:28:18.185Z,19.44
2017-03-06T00:29:28.518Z,19.57
2017-03-06T00:30:39.295Z,19.49
2017-03-06T00:31:50.044Z,19.41
2017-03-06T00:33:01.021Z,19.38
2017-03-06T00:34:10.563Z,19.45
2017-03-06T00:35:21.317Z,19.42
2017-03-06T00:36:32.057Z,19.44
2017-03-06T00:37:42.515Z,19.42
2017-03-06T00:38:52.729Z,19.47
2017-03-06T00:40:03.470Z,19.41
2017-03-06T00:41:13.434Z,19.49
2017-03-06T00:42:24.186Z,19.45
2017-03-06T00:43:34.917Z,19.44
2017-03-06T00:44:45.522Z,19.52
2017-03-06T00:45:55.855Z,19.41
2017-03-06T00:47:05.808Z,19.45
2017-03-06T00:48:15.762Z,19.42
2017-03-06T00:49:26.512Z,19.42
2017-03-06T00:50:37.084Z,19.48
2017-03-06T00:51:47.440Z,19.52
2017-03-06T00:52:57.769Z,19.47
2017-03-06T00:54:08.127Z,19.47
2017-03-06T00:55:18.066Z,19.41
2017-03-06T00:56:28.675Z,19.44
2017-03-06T00:57:38.642Z,19.45
2017-03-06T00:58:49.376Z,19.44
2017-03-06T00:59:59.308Z,19.49
2017-03-06T01:01:09.638Z,19.42
2017-03-06T01:02:20.246Z,19.48
2017-03-06T01:03:30.585Z,19.41
2017-03-06T01:04:40.141Z,19.49
2017-03-06T01:05:50.082Z,19.42
2017-03-06T01:07:00.038Z,19.52
2017-03-06T01:08:10.623Z,19.49
2017-03-06T01:09:20.553Z,19.44
2017-03-06T01:10:30.874Z,19.52
2017-03-06T01:11:41.236Z,19.42
2017-03-06T01:12:51.587Z,19.41
2017-03-06T01:14:02.169Z,19.44
2017-03-06T01:15:12.540Z,19.39
2017-03-06T01:16:22.894Z,19.47
2017-03-06T01:17:33.232Z,19.47
2017-03-06T01:18:43.974Z,19.48
2017-03-06T01:19:55.001Z,19.47
2017-03-06T01:21:05.719Z,19.47
2017-03-06T01:22:16.057Z,19.45
2017-03-06T01:23:26.808Z,19.44
2017-03-06T01:24:37.151Z,19.48
2017-03-06T01:25:47.347Z,19.49
2017-03-06T01:26:57.702Z,19.49
2017-03-06T01:28:07.816Z,19.44
2017-03-06T01:29:18.150Z,19.41
2017-03-06T01:30:28.879Z,19.42
2017-03-06T01:31:39.484Z,19.48
2017-03-06T01:32:49.839Z,19.45
2017-03-06T01:33:59.792Z,19.47
2017-03-06T01:35:09.724Z,19.49
2017-03-06T01:36:20.070Z,19.41
2017-03-06T01:37:31.043Z,19.38
2017-03-06T01:38:41.376Z,19.37
2017-03-06T01:39:51.709Z,19.39
2017-03-06T01:41:01.667Z,19.39
2017-03-06T01:42:12.430Z,19.38
2017-03-06T01:43:22.658Z,19.39
2017-03-06T01:44:33.030Z,19.34
2017-03-06T01:45:43.399Z,19.32
2017-03-06T01:46:53.359Z,19.37
2017-03-06T01:48:03.298Z,19.41
2017-03-06T01:49:13.557Z,19.38
2017-03-06T01:50:23.485Z,19.34
2017-03-06T01:51:33.443Z,19.34
2017-03-06T01:52:43.798Z,19.35
2017-03-06T01:53:54.553Z,19.38
2017-03-06T01:55:04.822Z,19.37
2017-03-06T01:56:14.774Z,19.39
2017-03-06T01:57:25.151Z,19.37
2017-03-06T01:58:35.884Z,19.35
2017-03-06T01:59:45.830Z,19.35
2017-03-06T02:00:56.831Z,19.32
2017-03-06T02:02:07.177Z,19.37
2017-03-06T02:03:17.925Z,19.34
2017-03-06T02:04:27.873Z,19.35
2017-03-06T02:05:38.214Z,19.37
2017-03-06T02:06:48.841Z,19.38
2017-03-06T02:07:59.584Z,19.39
2017-03-06T02:09:09.144Z,19.37
2017-03-06T02:10:18.721Z,19.41
2017-03-06T02:11:28.653Z,19.34
2017-03-06T02:12:39.328Z,19.37
2017-03-06T02:13:49.279Z,19.38
2017-03-06T02:15:00.032Z,19.32
2017-03-06T02:16:10.364Z,19.32
2017-03-06T02:17:20.694Z,19.38
2017-03-06T02:18:31.308Z,19.32
2017-03-06T02:19:42.040Z,19.38
2017-03-06T02:20:52.783Z,19.35
2017-03-06T02:22:03.126Z,19.32
2017-03-06T02:23:13.468Z,19.35
2017-03-06T02:24:24.082Z,19.37
2017-03-06T02:25:34.035Z,19.35
2017-03-06T02:26:44.378Z,19.38
2017-03-06T02:27:55.126Z,19.34
2017-03-06T02:29:05.858Z,19.38
2017-03-06T02:30:16.834Z,19.34
2017-03-06T02:31:27.613Z,19.34
2017-03-06T02:32:37.955Z,19.39
2017-03-06T02:33:48.293Z,19.38
2017-03-06T02:34:58.644Z,19.38
2017-03-06T02:36:09.231Z,19.35
2017-03-06T02:37:19.987Z,19.34
2017-03-06T02:38:29.938Z,19.35
2017-03-06T02:39:39.868Z,19.35
2017-03-06T02:40:49.852Z,19.38
2017-03-06T02:42:00.832Z,19.34
2017-03-06T02:43:11.171Z,19.39
2017-03-06T02:44:21.151Z,19.37
2017-03-06T02:45:31.877Z,19.35
2017-03-06T02:46:41.849Z,19.38
2017-03-06T02:47:52.847Z,19.42
2017-03-06T02:49:03.589Z,19.32
2017-03-06T02:50:13.523Z,19.35
2017-03-06T02:51:24.277Z,19.29
2017-03-06T02:52:35.001Z,19.3
2017-03-06T02:53:45.219Z,19.24
2017-03-06T02:54:55.561Z,19.34
2017-03-06T02:56:06.321Z,19.34
2017-03-06T02:57:17.046Z,19.29
2017-03-06T02:58:25.797Z,19.3
2017-03-06T02:59:36.822Z,19.34
2017-03-06T03:00:45.968Z,19.23
2017-03-06T03:01:55.913Z,19.29
2017-03-06T03:03:06.653Z,19.27
2017-03-06T03:04:15.808Z,19.29
2017-03-06T03:05:26.409Z,19.3
2017-03-06T03:06:37.132Z,19.3
2017-03-06T03:07:47.483Z,19.27
2017-03-06T03:08:58.252Z,19.26
2017-03-06T03:10:08.227Z,19.27
2017-03-06T03:11:17.625Z,19.26
2017-03-06T03:12:27.570Z,19.23
2017-03-06T03:13:37.933Z,19.2
2017-03-06T03:14:48.261Z,19.29
2017-03-06T03:15:58.991Z,19.3
2017-03-06T03:17:09.595Z,19.29
2017-03-06T03:18:19.546Z,19.27
2017-03-06T03:19:29.096Z,19.29
2017-03-06T03:20:39.047Z,19.29
2017-03-06T03:21:49.394Z,19.23
2017-03-06T03:22:59.999Z,19.29
2017-03-06T03:24:10.738Z,19.22
2017-03-06T03:25:21.487Z,19.24
2017-03-06T03:26:31.864Z,19.24
2017-03-06T03:27:41.426Z,19.24
2017-03-06T03:28:51.228Z,19.27
2017-03-06T03:30:01.581Z,19.26
2017-03-06T03:31:12.144Z,19.2
2017-03-06T03:32:22.898Z,19.26
2017-03-06T03:33:32.447Z,19.26
2017-03-06T03:34:42.645Z,19.22
2017-03-06T03:35:53.385Z,19.26
2017-03-06T03:37:03.346Z,19.26
2017-03-06T03:38:13.292Z,19.29
2017-03-06T03:39:22.844Z,19.29
2017-03-06T03:40:33.881Z,19.2
2017-03-06T03:41:44.258Z,19.27
2017-03-06T03:42:54.207Z,19.24
2017-03-06T03:44:04.161Z,19.27
2017-03-06T03:45:14.505Z,19.24
2017-03-06T03:46:24.767Z,19.23
2017-03-06T03:47:35.190Z,19.22
2017-03-06T03:48:45.141Z,19.24
2017-03-06T03:49:55.868Z,19.27
2017-03-06T03:51:06.600Z,19.24
2017-03-06T03:52:16.076Z,19.17
2017-03-06T03:53:26.021Z,19.2
2017-03-06T03:54:36.002Z,19.19
2017-03-06T03:55:45.951Z,19.22
2017-03-06T03:56:56.696Z,19.16
2017-03-06T03:58:06.937Z,19.16
2017-03-06T03:59:17.273Z,19.2
2017-03-06T04:00:28.012Z,19.22
2017-03-06T04:01:37.955Z,19.26
2017-03-06T04:02:48.300Z,19.26
2017-03-06T04:03:59.362Z,19.17
2017-03-06T04:05:09.289Z,19.17
2017-03-06T04:06:19.260Z,19.23
2017-03-06T04:07:28.798Z,19.24
2017-03-06T04:08:38.345Z,19.22
2017-03-06T04:09:49.337Z,19.3
2017-03-06T04:11:00.069Z,19.19
2017-03-06T04:12:09.628Z,19.22
2017-03-06T04:13:18.786Z,19.24
2017-03-06T04:14:29.156Z,19.23
2017-03-06T04:15:40.204Z,19.23
2017-03-06T04:16:49.793Z,19.27
2017-03-06T04:18:00.540Z,19.23
2017-03-06T04:19:10.881Z,19.24
2017-03-06T04:20:21.227Z,19.19
2017-03-06T04:21:31.814Z,19.2
2017-03-06T04:22:42.165Z,19.17
2017-03-06T04:23:52.891Z,19.29
2017-03-06T04:25:02.865Z,19.27
2017-03-06T04:26:13.211Z,19.24
2017-03-06T04:27:24.187Z,19.26
2017-03-06T04:28:34.522Z,19.22
2017-03-06T04:29:44.446Z,19.22
2017-03-06T04:30:54.795Z,19.19
2017-03-06T04:32:05.156Z,19.17
2017-03-06T04:33:15.752Z,19.19
2017-03-06T04:34:26.101Z,19.19
2017-03-06T04:35:36.051Z,19.15
2017-03-06T04:36:46.406Z,19.15
2017-03-06T04:37:56.713Z,19.16
2017-03-06T04:39:07.391Z,19.16
2017-03-06T04:40:18.118Z,19.16
2017-03-06T04:41:28.463Z,19.2
2017-03-06T04:42:39.211Z,19.2
2017-03-06T04:43:49.951Z,19.2
2017-03-06T04:45:00.600Z,19.19
2017-03-06T04:46:11.122Z,19.04
2017-03-06T04:47:21.091Z,19.07
2017-03-06T04:48:31.826Z,19.19
2017-03-06T04:49:42.197Z,19.11
2017-03-06T04:50:52.792Z,19.07
2017-03-06T04:52:03.139Z,19.19
2017-03-06T04:53:13.103Z,19.16
2017-03-06T04:54:23.429Z,19.19
2017-03-06T04:55:33.779Z,19.2
2017-03-06T04:56:44.375Z,19.17
2017-03-06T04:57:55.118Z,19.19
2017-03-06T04:59:05.851Z,19.16
2017-03-06T05:00:15.800Z,19.17
2017-03-06T05:01:25.813Z,19.15
2017-03-06T05:02:36.795Z,19.19
2017-03-06T05:03:47.541Z,19.2
2017-03-06T05:04:58.275Z,19.07
2017-03-06T05:06:07.854Z,19.2
2017-03-06T05:07:17.429Z,19.16
2017-03-06T05:08:27.221Z,19.15
2017-03-06T05:09:37.576Z,19.19
2017-03-06T05:10:48.305Z,19.19
2017-03-06T05:11:59.045Z,19.17
2017-03-06T05:13:09.394Z,19.19
2017-03-06T05:14:19.668Z,19.19
2017-03-06T05:15:30.037Z,19.2
2017-03-06T05:16:40.373Z,19.19
2017-03-06T05:17:50.713Z,19.15
2017-03-06T05:19:00.294Z,19.09
2017-03-06T05:20:10.143Z,19.17
2017-03-06T05:21:20.507Z,19.16
2017-03-06T05:22:31.244Z,19.2
2017-03-06T05:23:41.208Z,19.04
2017-03-06T05:24:51.983Z,19.08
2017-03-06T05:26:02.281Z,19.07
2017-03-06T05:27:13.031Z,18.97
2017-03-06T05:28:23.800Z,19
2017-03-06T05:29:34.146Z,19.11
2017-03-06T05:30:44.116Z,19.07
2017-03-06T05:31:55.086Z,19.07
2017-03-06T05:33:04.652Z,19.07
2017-03-06T05:34:15.023Z,19.05
2017-03-06T05:35:25.756Z,19.12
2017-03-06T05:36:36.091Z,19.07
2017-03-06T05:37:46.361Z,19.11
2017-03-06T05:38:57.116Z,19.07
2017-03-06T05:40:07.090Z,19.08
2017-03-06T05:41:17.438Z,19.07
2017-03-06T05:42:27.794Z,19
2017-03-06T05:43:38.441Z,19.04
2017-03-06T05:44:48.790Z,19.22
2017-03-06T05:45:59.138Z,19.05
2017-03-06T05:47:09.471Z,19.08
2017-03-06T05:48:20.182Z,19.08
2017-03-06T05:49:31.203Z,19.11
2017-03-06T05:50:41.580Z,19.16
2017-03-06T05:51:51.937Z,19.15
2017-03-06T05:53:02.290Z,19.05
2017-03-06T05:54:12.670Z,19.17
2017-03-06T05:55:23.263Z,19.16
2017-03-06T05:56:33.589Z,19.01
2017-03-06T05:57:43.957Z,19.12
2017-03-06T05:58:53.510Z,19.15
2017-03-06T06:00:03.855Z,19.16
2017-03-06T06:01:14.898Z,19.17
2017-03-06T06:02:25.247Z,19.05
2017-03-06T06:03:35.202Z,19.08
2017-03-06T06:04:45.158Z,19.01
2017-03-06T06:05:55.902Z,19.15
2017-03-06T06:07:06.134Z,19.08
2017-03-06T06:08:16.888Z,19.12
2017-03-06T06:09:27.241Z,19.07
2017-03-06T06:10:37.574Z,19.19
2017-03-06T06:11:47.931Z,19.07
2017-03-06T06:12:58.111Z,19.17
2017-03-06T06:14:08.857Z,19.19
2017-03-06T06:15:19.210Z,19.16
2017-03-06T06:16:29.551Z,19.2
2017-03-06T06:17:39.106Z,19.2
2017-03-06T06:18:49.364Z,19.09
2017-03-06T06:19:59.323Z,19.16
2017-03-06T06:21:10.088Z,19.16
2017-03-06T06:22:20.463Z,19.09
2017-03-06T06:23:31.056Z,19.16
2017-03-06T06:24:40.899Z,19.16
2017-03-06T06:25:51.278Z,19.08
2017-03-06T06:27:01.613Z,19.17
2017-03-06T06:28:11.977Z,19.2
2017-03-06T06:29:22.702Z,19.16
2017-03-06T06:30:33.755Z,19.15
2017-03-06T06:31:43.717Z,19.16
2017-03-06T06:32:54.066Z,19.16
2017-03-06T06:34:04.402Z,19.19
2017-03-06T06:35:14.728Z,19.2
2017-03-06T06:36:25.327Z,19.17
2017-03-06T06:37:36.060Z,19.26
2017-03-06T06:38:46.827Z,19.23
2017-03-06T06:39:57.570Z,19.16
2017-03-06T06:41:07.919Z,19.24
2017-03-06T06:42:18.976Z,19.19
2017-03-06T06:43:28.809Z,19.22
2017-03-06T06:44:39.571Z,19.22
2017-03-06T06:45:49.919Z,19.22
2017-03-06T06:47:00.722Z,19.26
2017-03-06T06:48:11.453Z,19.19
2017-03-06T06:49:22.229Z,19.29
2017-03-06T06:50:32.616Z,19.19
2017-03-06T06:51:43.346Z,19.2
2017-03-06T06:52:53.689Z,19.17
2017-03-06T06:54:04.370Z,19.24
2017-03-06T06:55:15.136Z,19.26
2017-03-06T06:56:25.086Z,19.24
2017-03-06T06:57:35.088Z,19.27
2017-03-06T06:58:45.477Z,19.27
2017-03-06T06:59:56.466Z,19.19
2017-03-06T07:01:06.452Z,19.2
2017-03-06T07:02:16.415Z,19.27
2017-03-06T07:03:26.810Z,19.24
2017-03-06T07:04:37.193Z,19.32
2017-03-06T07:05:47.868Z,19.23
2017-03-06T07:06:58.220Z,19.27
2017-03-06T07:08:08.163Z,19.27
2017-03-06T07:09:18.502Z,19.29
2017-03-06T07:10:28.883Z,19.24
2017-03-06T07:11:38.692Z,19.24
2017-03-06T07:12:49.439Z,19.27
2017-03-06T07:13:59.039Z,19.23
2017-03-06T07:15:08.983Z,19.3
2017-03-06T07:16:19.327Z,19.32
2017-03-06T07:17:29.977Z,19.35
2017-03-06T07:18:39.156Z,19.32
2017-03-06T07:19:49.532Z,19.3
2017-03-06T07:20:59.501Z,19.39
2017-03-06T07:22:09.463Z,19.37
2017-03-06T07:23:20.492Z,19.34
2017-03-06T07:24:30.473Z,19.34
2017-03-06T07:25:40.844Z,19.39
2017-03-06T07:26:51.225Z,19.34
2017-03-06T07:28:01.593Z,19.35
2017-03-06T07:29:11.554Z,19.32
2017-03-06T07:30:21.916Z,19.38
2017-03-06T07:31:32.284Z,19.35
2017-03-06T07:32:42.659Z,19.34
2017-03-06T07:33:53.663Z,19.34
2017-03-06T07:35:04.433Z,19.32
2017-03-06T07:36:15.420Z,19.39
2017-03-06T07:37:25.783Z,19.37
2017-03-06T07:38:35.852Z,19.32
2017-03-06T07:39:46.872Z,19.34
2017-03-06T07:40:57.660Z,19.41
2017-03-06T07:42:08.490Z,19.38
2017-03-06T07:43:18.892Z,19.38
2017-03-06T07:44:29.653Z,19.37
2017-03-06T07:45:40.709Z,19.44
2017-03-06T07:46:51.091Z,19.41
2017-03-06T07:48:01.900Z,19.35
2017-03-06T07:49:12.661Z,19.39
2017-03-06T07:50:23.393Z,19.45
2017-03-06T07:51:33.677Z,19.42
2017-03-06T07:52:43.658Z,19.42
2017-03-06T07:53:54.460Z,19.45
2017-03-06T07:55:04.444Z,19.48
2017-03-06T07:56:15.205Z,19.55
2017-03-06T07:57:25.465Z,19.41
2017-03-06T07:58:35.840Z,19.47
2017-03-06T07:59:45.886Z,19.57
2017-03-06T08:00:56.659Z,19.48
2017-03-06T08:02:06.607Z,19.45
2017-03-06T08:03:17.240Z,19.41
2017-03-06T08:04:27.974Z,19.55
2017-03-06T08:05:38.719Z,19.56
2017-03-06T08:06:49.516Z,19.62
2017-03-06T08:08:00.345Z,19.52
2017-03-06T08:09:11.392Z,19.56
2017-03-06T08:10:22.159Z,19.53
2017-03-06T08:11:32.528Z,19.48
2017-03-06T08:12:42.910Z,19.57
2017-03-06T08:13:53.237Z,19.55
2017-03-06T08:15:04.206Z,19.59
2017-03-06T08:16:14.394Z,19.6
2017-03-06T08:17:24.156Z,19.57
2017-03-06T08:18:34.959Z,19.63
2017-03-06T08:19:45.773Z,19.64
2017-03-06T08:20:55.658Z,19.7
2017-03-06T08:22:06.059Z,19.64
2017-03-06T08:23:16.440Z,19.66
2017-03-06T08:24:26.800Z,19.66
2017-03-06T08:25:36.777Z,19.71
2017-03-06T08:26:47.410Z,19.79
2017-03-06T08:27:57.415Z,19.71
2017-03-06T08:29:07.778Z,19.74
2017-03-06T08:30:18.160Z,19.66
2017-03-06T08:31:28.927Z,19.77
2017-03-06T08:32:39.557Z,19.74
2017-03-06T08:33:49.522Z,19.75
2017-03-06T08:35:00.331Z,19.7
2017-03-06T08:36:10.693Z,19.74
2017-03-06T08:37:21.441Z,19.79
2017-03-06T08:38:32.095Z,19.75
2017-03-06T08:39:42.454Z,19.75
2017-03-06T08:40:53.234Z,19.81
2017-03-06T08:42:03.579Z,19.77
2017-03-06T08:43:14.337Z,19.78
2017-03-06T08:44:25.343Z,19.81
2017-03-06T08:45:35.349Z,19.85
2017-03-06T08:46:44.943Z,19.84
2017-03-06T08:47:54.891Z,19.85
2017-03-06T08:49:04.859Z,19.87
2017-03-06T08:50:15.481Z,19.9
2017-03-06T08:51:25.832Z,19.87
2017-03-06T08:52:36.184Z,19.92
2017-03-06T08:53:46.988Z,19.87
2017-03-06T08:54:57.889Z,19.99
2017-03-06T08:56:09.007Z,19.99
2017-03-06T08:57:19.785Z,20
2017-03-06T08:58:30.178Z,19.97
2017-03-06T08:59:40.930Z,20.08
2017-03-06T09:00:51.682Z,20.08
2017-03-06T09:02:02.716Z,20.08
2017-03-06T09:03:13.471Z,20.17
2017-03-06T09:04:24.456Z,20.15
2017-03-06T09:05:35.307Z,20.03
2017-03-06T09:06:46.101Z,20.11
2017-03-06T09:07:56.393Z,20.14
2017-03-06T09:09:06.867Z,20.14
2017-03-06T09:10:17.506Z,20.18
2017-03-06T09:11:27.905Z,20.12
2017-03-06T09:12:38.674Z,20.18
2017-03-06T09:13:49.317Z,20.12
2017-03-06T09:15:00.153Z,20.15
2017-03-06T09:16:10.956Z,20.22
2017-03-06T09:17:21.733Z,20.26
2017-03-06T09:18:32.094Z,20.21
2017-03-06T09:19:42.761Z,20.21
2017-03-06T09:20:53.156Z,20.24
2017-03-06T09:22:03.538Z,20.27
2017-03-06T09:23:13.907Z,20.21
2017-03-06T09:24:24.956Z,20.24
2017-03-06T09:25:35.579Z,20.21
2017-03-06T09:26:46.207Z,20.27
2017-03-06T09:27:56.176Z,20.18
2017-03-06T09:29:06.561Z,20.26
2017-03-06T09:30:17.335Z,20.24
2017-03-06T09:31:28.368Z,20.29
2017-03-06T09:32:38.337Z,20.26
2017-03-06T09:33:48.706Z,20.34
2017-03-06T09:34:59.071Z,20.27
2017-03-06T09:36:09.444Z,20.32
2017-03-06T09:37:20.457Z,20.3
2017-03-06T09:38:31.260Z,20.44
2017-03-06T09:39:42.049Z,20.3
2017-03-06T09:40:52.427Z,20.32
2017-03-06T09:42:02.796Z,20.4
2017-03-06T09:43:13.832Z,20.33
2017-03-06T09:44:24.596Z,20.42
2017-03-06T09:45:35.372Z,20.42
2017-03-06T09:46:45.352Z,20.33
2017-03-06T09:47:54.924Z,20.4
2017-03-06T09:49:06.028Z,20.27
2017-03-06T09:50:16.886Z,20.32
2017-03-06T09:51:27.289Z,20.33
2017-03-06T09:52:37.652Z,20.33
2017-03-06T09:53:48.444Z,20.33
2017-03-06T09:54:58.281Z,20.3
2017-03-06T09:56:09.062Z,20.33
2017-03-06T09:57:19.502Z,20.36
2017-03-06T09:58:29.099Z,20.37
2017-03-06T09:59:39.125Z,20.27
2017-03-06T10:00:49.799Z,20.34
2017-03-06T10:02:00.586Z,20.33
2017-03-06T10:03:11.631Z,20.27
2017-03-06T10:04:22.012Z,20.3
2017-03-06T10:05:32.404Z,20.21
2017-03-06T10:06:43.016Z,20.26
2017-03-06T10:07:53.403Z,20.26
2017-03-06T10:09:03.791Z,20.26
2017-03-06T10:10:14.164Z,20.22
2017-03-06T10:11:24.710Z,20.19
2017-03-06T10:12:34.946Z,20.12
2017-03-06T10:13:45.332Z,20.15
2017-03-06T10:14:55.381Z,20.15
2017-03-06T10:16:05.813Z,20.11
2017-03-06T10:17:16.555Z,20.12
2017-03-06T10:18:27.581Z,20.11
2017-03-06T10:19:37.131Z,20.14
2017-03-06T10:20:47.896Z,20.11
2017-03-06T10:21:58.264Z,20.11
2017-03-06T10:23:09.022Z,20.14
2017-03-06T10:24:18.859Z,20.14
2017-03-06T10:25:28.815Z,20.11
2017-03-06T10:26:39.198Z,20.1
2017-03-06T10:27:49.575Z,20.11
2017-03-06T10:28:59.972Z,20.12
2017-03-06T10:30:11.058Z,20.11
2017-03-06T10:31:21.848Z,20.14
2017-03-06T10:32:31.848Z,20.11
2017-03-06T10:33:42.606Z,20.14
2017-03-06T10:34:52.979Z,20.11
2017-03-06T10:36:03.659Z,20.11
2017-03-06T10:37:13.619Z,20.11
2017-03-06T10:38:23.572Z,20.11
2017-03-06T10:39:34.369Z,20.08
2017-03-06T10:40:45.140Z,20.11
2017-03-06T10:41:55.337Z,20.11
2017-03-06T10:43:05.685Z,20.04
2017-03-06T10:44:15.648Z,20.14
2017-03-06T10:45:26.514Z,20.07
2017-03-06T10:46:36.504Z,20.14
2017-03-06T10:47:46.728Z,20.11
2017-03-06T10:48:57.495Z,20.08
2017-03-06T10:50:07.831Z,20.1
2017-03-06T10:51:18.161Z,20.11
2017-03-06T10:52:28.507Z,20.08
2017-03-06T10:53:39.165Z,20.11
2017-03-06T10:54:49.893Z,20.14
2017-03-06T10:56:00.228Z,20.11
2017-03-06T10:57:10.965Z,20.11
2017-03-06T10:58:21.710Z,20.14
2017-03-06T10:59:31.957Z,20.04
2017-03-06T11:00:42.731Z,20.1
2017-03-06T11:01:53.480Z,20.04
2017-03-06T11:03:03.848Z,20.11
2017-03-06T11:04:13.417Z,20.11
2017-03-06T11:05:24.468Z,20.14
2017-03-06T11:06:34.025Z,20.14
2017-03-06T11:07:44.749Z,20.12
2017-03-06T11:08:54.679Z,20.14
2017-03-06T11:10:05.441Z,20.21
2017-03-06T11:11:16.472Z,20.24
2017-03-06T11:12:26.809Z,20.18
2017-03-06T11:13:36.738Z,20.22
2017-03-06T11:14:46.269Z,20.3
2017-03-06T11:15:56.995Z,20.19
2017-03-06T11:17:07.627Z,20.24
2017-03-06T11:18:17.170Z,20.27
2017-03-06T11:19:27.909Z,20.3
2017-03-06T11:20:38.628Z,20.32
2017-03-06T11:21:48.934Z,20.34
2017-03-06T11:22:59.631Z,20.33
2017-03-06T11:24:09.953Z,20.34
2017-03-06T11:25:20.303Z,20.36
2017-03-06T11:26:31.051Z,20.32
2017-03-06T11:27:41.767Z,20.37
2017-03-06T11:28:52.011Z,20.29
2017-03-06T11:30:02.340Z,20.29
2017-03-06T11:31:12.695Z,20.34
2017-03-06T11:32:22.627Z,20.3
2017-03-06T11:33:32.974Z,20.34
2017-03-06T11:34:43.649Z,20.19
2017-03-06T11:35:53.973Z,20.32
2017-03-06T11:37:04.755Z,20.34
2017-03-06T11:38:14.300Z,20.33
2017-03-06T11:39:24.652Z,20.18
2017-03-06T11:40:34.458Z,20.3
2017-03-06T11:41:44.441Z,20.33
2017-03-06T11:42:54.808Z,20.32
2017-03-06T11:44:05.589Z,20.37
2017-03-06T11:45:15.530Z,20.32
2017-03-06T11:46:26.551Z,20.37
2017-03-06T11:47:36.525Z,20.36
2017-03-06T11:48:46.472Z,20.3
2017-03-06T11:49:56.815Z,20.32
2017-03-06T11:51:07.887Z,20.29
2017-03-06T11:52:18.536Z,20.44
2017-03-06T11:53:28.844Z,20.44
2017-03-06T11:54:38.787Z,20.5
2017-03-06T11:55:49.133Z,20.48
2017-03-06T11:56:59.462Z,20.48
2017-03-06T11:58:09.243Z,20.44
2017-03-06T11:59:19.562Z,20.48
2017-03-06T12:00:30.280Z,20.52
2017-03-06T12:01:40.250Z,20.58
2017-03-06T12:02:50.185Z,20.56
2017-03-06T12:04:00.780Z,20.56
2017-03-06T12:05:11.120Z,20.67
2017-03-06T12:06:21.471Z,20.56
2017-03-06T12:07:31.398Z,20.64
2017-03-06T12:08:41.320Z,20.67
2017-03-06T12:09:52.020Z,20.6
2017-03-06T12:11:02.337Z,20.66
2017-03-06T12:12:12.672Z,20.63
2017-03-06T12:13:23.409Z,20.67
2017-03-06T12:14:33.772Z,20.64
2017-03-06T12:15:43.582Z,20.64
2017-03-06T12:16:53.512Z,20.55
2017-03-06T12:18:03.063Z,20.6
2017-03-06T12:19:12.583Z,20.66
2017-03-06T12:20:22.112Z,20.67
2017-03-06T12:21:33.077Z,20.63
2017-03-06T12:22:43.029Z,20.67
2017-03-06T12:23:53.356Z,20.63
2017-03-06T12:25:03.707Z,20.66
2017-03-06T12:26:14.041Z,20.64
2017-03-06T12:27:25.094Z,20.64
2017-03-06T12:28:35.434Z,20.52
2017-03-06T12:29:45.451Z,20.53
2017-03-06T12:30:55.769Z,20.64
2017-03-06T12:32:05.705Z,20.56
2017-03-06T12:33:16.332Z,20.6
2017-03-06T12:34:26.668Z,20.6
2017-03-06T12:35:36.609Z,20.53
2017-03-06T12:36:46.922Z,20.53
2017-03-06T12:37:57.247Z,20.58
2017-03-06T12:39:07.490Z,20.55
2017-03-06T12:40:17.439Z,20.56
2017-03-06T12:41:27.370Z,20.5
2017-03-06T12:42:37.739Z,20.53
2017-03-06T12:43:47.677Z,20.52
2017-03-06T12:44:57.130Z,20.55
2017-03-06T12:46:07.867Z,20.55
2017-03-06T12:47:17.806Z,20.55
2017-03-06T12:48:28.507Z,20.53
2017-03-06T12:49:38.850Z,20.56
2017-03-06T12:50:49.482Z,20.58
2017-03-06T12:51:59.810Z,20.53
2017-03-06T12:53:10.531Z,20.53
2017-03-06T12:54:20.872Z,20.55
2017-03-06T12:55:30.813Z,20.52
2017-03-06T12:56:41.484Z,20.5
2017-03-06T12:57:52.246Z,20.58
2017-03-06T12:59:02.615Z,20.55
2017-03-06T13:00:12.551Z,20.52
2017-03-06T13:01:21.707Z,20.5
2017-03-06T13:02:31.923Z,20.52
2017-03-06T13:03:42.254Z,20.5
2017-03-06T13:04:51.420Z,20.5
2017-03-06T13:06:01.740Z,20.44
2017-03-06T13:07:11.735Z,20.42
2017-03-06T13:08:22.751Z,20.42
2017-03-06T13:09:33.080Z,20.29
2017-03-06T13:10:43.441Z,20.34
2017-03-06T13:11:53.794Z,20.36
2017-03-06T13:13:04.557Z,20.36
2017-03-06T13:14:15.187Z,20.32
2017-03-06T13:15:25.567Z,20.34
2017-03-06T13:16:35.320Z,20.18
2017-03-06T13:17:45.675Z,20.3
2017-03-06T13:18:55.251Z,20.21
2017-03-06T13:20:05.904Z,20.27
2017-03-06T13:21:15.461Z,20.24
2017-03-06T13:22:25.408Z,20.21
2017-03-06T13:23:36.146Z,20.24
2017-03-06T13:24:46.113Z,20.21
2017-03-06T13:25:56.703Z,20.22
2017-03-06T13:27:07.051Z,20.14
2017-03-06T13:28:17.797Z,20.18
2017-03-06T13:29:28.286Z,20.15
2017-03-06T13:30:38.322Z,20.1
2017-03-06T13:31:49.298Z,20.18
2017-03-06T13:32:58.890Z,20.12
2017-03-06T13:34:08.855Z,20.14
2017-03-06T13:35:19.583Z,20.1
2017-03-06T13:36:29.963Z,20.08
2017-03-06T13:37:40.609Z,20.1
2017-03-06T13:38:50.966Z,20.12
2017-03-06T13:40:01.800Z,20.12
2017-03-06T13:41:12.153Z,20.1
2017-03-06T13:42:22.929Z,20.14
2017-03-06T13:43:33.552Z,20.14
2017-03-06T13:44:44.271Z,19.99
2017-03-06T13:45:54.614Z,20.08
2017-03-06T13:47:04.960Z,20
2017-03-06T13:48:15.509Z,19.97
2017-03-06T13:49:26.138Z,20.03
2017-03-06T13:50:36.086Z,20.07
2017-03-06T13:51:46.041Z,20.03
2017-03-06T13:52:56.374Z,20
2017-03-06T13:54:06.196Z,19.96
2017-03-06T13:55:17.373Z,19.94
2017-03-06T13:56:27.323Z,19.89
2017-03-06T13:57:36.875Z,19.94
2017-03-06T13:58:46.404Z,20
2017-03-06T13:59:55.924Z,20
2017-03-06T14:01:06.173Z,19.9
2017-03-06T14:02:16.104Z,19.96
2017-03-06T14:03:25.663Z,19.93
2017-03-06T14:04:35.622Z,19.87
2017-03-06T14:05:45.206Z,19.89
2017-03-06T14:06:55.835Z,19.99
2017-03-06T14:08:06.181Z,19.99
2017-03-06T14:09:16.517Z,19.9
2017-03-06T14:10:26.856Z,19.94
2017-03-06T14:11:37.196Z,19.9
2017-03-06T14:12:47.444Z,19.94
2017-03-06T14:13:57.774Z,19.97
2017-03-06T14:15:08.142Z,19.96
2017-03-06T14:16:18.149Z,19.92
2017-03-06T14:17:28.069Z,19.99
2017-03-06T14:18:38.301Z,19.99
2017-03-06T14:19:48.646Z,19.92
2017-03-06T14:20:58.589Z,19.99
2017-03-06T14:22:08.916Z,19.96
2017-03-06T14:23:18.473Z,19.87
2017-03-06T14:24:28.326Z,19.9
2017-03-06T14:25:38.253Z,19.89
2017-03-06T14:26:48.979Z,19.92
2017-03-06T14:27:59.320Z,19.97
2017-03-06T14:29:10.036Z,19.99
2017-03-06T14:30:20.677Z,19.85
2017-03-06T14:31:31.414Z,19.85
2017-03-06T14:32:41.765Z,19.93
2017-03-06T14:33:51.721Z,19.97
2017-03-06T14:35:02.089Z,19.82
2017-03-06T14:36:13.111Z,19.85
2017-03-06T14:37:23.479Z,19.96
2017-03-06T14:38:34.242Z,19.99
2017-03-06T14:39:44.991Z,19.97
2017-03-06T14:40:54.794Z,19.97
2017-03-06T14:42:05.037Z,20
2017-03-06T14:43:14.601Z,19.96
2017-03-06T14:44:24.966Z,20.04
2017-03-06T14:45:35.309Z,19.93
2017-03-06T14:46:44.606Z,19.94
2017-03-06T14:47:55.618Z,20.02
2017-03-06T14:49:04.815Z,20.08
2017-03-06T14:50:14.754Z,20.03
2017-03-06T14:51:25.502Z,20.07
2017-03-06T14:52:36.231Z,20.15
2017-03-06T14:53:46.494Z,20.12
2017-03-06T14:54:56.452Z,20.14
2017-03-06T14:56:06.393Z,20.02
2017-03-06T14:57:17.100Z,20
2017-03-06T14:58:27.462Z,20.03
2017-03-06T14:59:37.291Z,20.04
2017-03-06T15:00:47.650Z,20
2017-03-06T15:01:57.986Z,19.96
2017-03-06T15:03:07.931Z,19.97
2017-03-06T15:04:17.474Z,19.99
2017-03-06T15:05:28.112Z,19.97
2017-03-06T15:06:38.851Z,20.02
2017-03-06T15:07:48.779Z,20.02
2017-03-06T15:08:59.117Z,19.93